sensor_id;sensor_type;location;lat;lon;timestamp;P1;durP1;ratioP1;P2;durP2;ratioP2
9156;SDS011;4613;48.392;9.998;2022-10-26T00:01:09;1.80;;;1.70;;
9156;SDS011;4613;48.392;9.998;2022-10-26T00:04:00;1.90;;;1.80;;
9156;SDS011;4613;48.392;9.998;2022-10-26T00:06:50;2.20;;;2.00;;
9156;SDS011;4613;48.392;9.998;2022-10-26T00:09:39;1.60;;;1.50;;
9156;SDS011;4613;48.392;9.998;2022-10-26T00:12:29;3.20;;;1.80;;
9156;SDS011;4613;48.392;9.998;2022-10-26T00:15:19;1.97;;;1.87;;
9156;SDS011;4613;48.392;9.998;2022-10-26T00:18:09;2.20;;;2.00;;
9156;SDS011;4613;48.392;9.998;2022-10-26T00:21:05;2.20;;;2.00;;
9156;SDS011;4613;48.392;9.998;2022-10-26T00:23:57;2.00;;;1.80;;
9156;SDS011;4613;48.392;9.998;2022-10-26T00:26:47;2.60;;;2.10;;
9156;SDS011;4613;48.392;9.998;2022-10-26T00:29:37;2.47;;;1.80;;
9156;SDS011;4613;48.392;9.998;2022-10-26T00:32:27;1.87;;;1.77;;
9156;SDS011;4613;48.392;9.998;2022-10-26T00:35:16;2.20;;;2.00;;
9156;SDS011;4613;48.392;9.998;2022-10-26T00:38:06;1.77;;;1.67;;
9156;SDS011;4613;48.392;9.998;2022-10-26T00:40:57;2.13;;;1.60;;
9156;SDS011;4613;48.392;9.998;2022-10-26T00:43:46;1.80;;;1.70;;
9156;SDS011;4613;48.392;9.998;2022-10-26T00:46:36;1.63;;;1.53;;
9156;SDS011;4613;48.392;9.998;2022-10-26T00:49:26;1.63;;;1.53;;
9156;SDS011;4613;48.392;9.998;2022-10-26T00:52:16;1.80;;;1.70;;
9156;SDS011;4613;48.392;9.998;2022-10-26T00:55:07;1.70;;;1.60;;
9156;SDS011;4613;48.392;9.998;2022-10-26T00:57:57;2.33;;;1.70;;
9156;SDS011;4613;48.392;9.998;2022-10-26T01:00:47;1.87;;;1.77;;
9156;SDS011;4613;48.392;9.998;2022-10-26T01:03:38;1.50;;;1.40;;
9156;SDS011;4613;48.392;9.998;2022-10-26T01:06:28;1.70;;;1.60;;
9156;SDS011;4613;48.392;9.998;2022-10-26T01:09:19;1.73;;;1.63;;
9156;SDS011;4613;48.392;9.998;2022-10-26T01:12:09;2.50;;;1.70;;
9156;SDS011;4613;48.392;9.998;2022-10-26T01:14:59;1.83;;;1.60;;
9156;SDS011;4613;48.392;9.998;2022-10-26T01:27:12;3.30;;;2.00;;
9156;SDS011;4613;48.392;9.998;2022-10-26T01:36:32;1.50;;;1.40;;
9156;SDS011;4613;48.392;9.998;2022-10-26T01:39:36;1.50;;;1.40;;
9156;SDS011;4613;48.392;9.998;2022-10-26T01:42:29;1.70;;;1.60;;
9156;SDS011;4613;48.392;9.998;2022-10-26T01:45:19;1.90;;;1.53;;
9156;SDS011;4613;48.392;9.998;2022-10-26T01:48:09;2.17;;;1.67;;
9156;SDS011;4613;48.392;9.998;2022-10-26T01:51:02;1.90;;;1.77;;
9156;SDS011;4613;48.392;9.998;2022-10-26T01:53:53;1.77;;;1.60;;
9156;SDS011;4613;48.392;9.998;2022-10-26T01:56:50;1.80;;;1.70;;
9156;SDS011;4613;48.392;9.998;2022-10-26T01:59:49;1.63;;;1.53;;
9156;SDS011;4613;48.392;9.998;2022-10-26T02:05:47;2.10;;;1.80;;
9156;SDS011;4613;48.392;9.998;2022-10-26T02:08:49;2.37;;;1.60;;
9156;SDS011;4613;48.392;9.998;2022-10-26T02:11:47;2.60;;;2.13;;
9156;SDS011;4613;48.392;9.998;2022-10-26T02:17:58;2.50;;;2.30;;
9156;SDS011;4613;48.392;9.998;2022-10-26T02:20:57;2.80;;;2.60;;
9156;SDS011;4613;48.392;9.998;2022-10-26T02:23:51;2.50;;;2.30;;
9156;SDS011;4613;48.392;9.998;2022-10-26T02:26:44;2.57;;;2.37;;
9156;SDS011;4613;48.392;9.998;2022-10-26T02:29:36;2.40;;;2.20;;
9156;SDS011;4613;48.392;9.998;2022-10-26T02:32:28;2.20;;;2.10;;
9156;SDS011;4613;48.392;9.998;2022-10-26T02:35:25;2.20;;;2.00;;
9156;SDS011;4613;48.392;9.998;2022-10-26T02:38:18;2.37;;;2.17;;
9156;SDS011;4613;48.392;9.998;2022-10-26T02:41:08;2.10;;;1.87;;
9156;SDS011;4613;48.392;9.998;2022-10-26T02:44:06;2.17;;;1.97;;
9156;SDS011;4613;48.392;9.998;2022-10-26T02:47:11;1.93;;;1.80;;
9156;SDS011;4613;48.392;9.998;2022-10-26T02:50:01;3.33;;;2.50;;
9156;SDS011;4613;48.392;9.998;2022-10-26T02:55:50;2.60;;;2.17;;
9156;SDS011;4613;48.392;9.998;2022-10-26T02:58:40;3.37;;;2.13;;
9156;SDS011;4613;48.392;9.998;2022-10-26T03:01:34;2.20;;;2.00;;
9156;SDS011;4613;48.392;9.998;2022-10-26T03:04:28;2.27;;;2.07;;
9156;SDS011;4613;48.392;9.998;2022-10-26T03:07:22;2.50;;;2.00;;
9156;SDS011;4613;48.392;9.998;2022-10-26T03:10:11;2.90;;;2.60;;
9156;SDS011;4613;48.392;9.998;2022-10-26T03:13:01;3.37;;;2.70;;
9156;SDS011;4613;48.392;9.998;2022-10-26T03:15:53;2.80;;;2.40;;
9156;SDS011;4613;48.392;9.998;2022-10-26T03:18:45;4.00;;;2.60;;
9156;SDS011;4613;48.392;9.998;2022-10-26T03:21:35;2.30;;;2.10;;
9156;SDS011;4613;48.392;9.998;2022-10-26T03:24:24;3.23;;;2.50;;
9156;SDS011;4613;48.392;9.998;2022-10-26T03:27:14;2.90;;;2.60;;
9156;SDS011;4613;48.392;9.998;2022-10-26T03:30:04;2.43;;;2.23;;
9156;SDS011;4613;48.392;9.998;2022-10-26T03:32:53;2.70;;;2.50;;
9156;SDS011;4613;48.392;9.998;2022-10-26T03:35:43;2.97;;;2.63;;
9156;SDS011;4613;48.392;9.998;2022-10-26T03:38:33;1.90;;;1.80;;
9156;SDS011;4613;48.392;9.998;2022-10-26T03:41:23;2.47;;;2.20;;
9156;SDS011;4613;48.392;9.998;2022-10-26T03:44:12;2.50;;;2.30;;
9156;SDS011;4613;48.392;9.998;2022-10-26T03:47:02;2.60;;;2.27;;
9156;SDS011;4613;48.392;9.998;2022-10-26T03:49:51;2.70;;;2.17;;
9156;SDS011;4613;48.392;9.998;2022-10-26T03:52:41;4.80;;;2.30;;
9156;SDS011;4613;48.392;9.998;2022-10-26T03:55:31;3.80;;;2.57;;
9156;SDS011;4613;48.392;9.998;2022-10-26T03:58:20;3.23;;;2.37;;
9156;SDS011;4613;48.392;9.998;2022-10-26T04:01:10;2.93;;;1.97;;
9156;SDS011;4613;48.392;9.998;2022-10-26T04:03:59;2.43;;;2.17;;
9156;SDS011;4613;48.392;9.998;2022-10-26T04:06:49;2.23;;;1.90;;
9156;SDS011;4613;48.392;9.998;2022-10-26T04:09:39;3.17;;;1.90;;
9156;SDS011;4613;48.392;9.998;2022-10-26T04:12:28;2.43;;;2.23;;
9156;SDS011;4613;48.392;9.998;2022-10-26T04:15:18;2.20;;;2.00;;
9156;SDS011;4613;48.392;9.998;2022-10-26T04:18:07;2.23;;;2.03;;
9156;SDS011;4613;48.392;9.998;2022-10-26T04:21:00;2.57;;;2.37;;
9156;SDS011;4613;48.392;9.998;2022-10-26T04:23:50;3.07;;;2.30;;
9156;SDS011;4613;48.392;9.998;2022-10-26T04:26:39;4.63;;;2.40;;
9156;SDS011;4613;48.392;9.998;2022-10-26T04:29:29;3.17;;;2.67;;
9156;SDS011;4613;48.392;9.998;2022-10-26T04:32:19;3.20;;;2.60;;
9156;SDS011;4613;48.392;9.998;2022-10-26T04:35:08;2.77;;;2.57;;
9156;SDS011;4613;48.392;9.998;2022-10-26T04:37:58;4.83;;;2.70;;
9156;SDS011;4613;48.392;9.998;2022-10-26T04:40:49;2.73;;;2.53;;
9156;SDS011;4613;48.392;9.998;2022-10-26T04:43:39;5.10;;;3.00;;
9156;SDS011;4613;48.392;9.998;2022-10-26T04:46:28;3.60;;;3.20;;
9156;SDS011;4613;48.392;9.998;2022-10-26T04:49:19;3.30;;;3.00;;
9156;SDS011;4613;48.392;9.998;2022-10-26T04:52:09;4.20;;;3.40;;
9156;SDS011;4613;48.392;9.998;2022-10-26T04:54:59;3.80;;;3.20;;
9156;SDS011;4613;48.392;9.998;2022-10-26T04:57:49;4.77;;;3.40;;
9156;SDS011;4613;48.392;9.998;2022-10-26T05:00:38;4.70;;;3.60;;
9156;SDS011;4613;48.392;9.998;2022-10-26T05:03:28;3.50;;;2.93;;
9156;SDS011;4613;48.392;9.998;2022-10-26T05:06:18;4.03;;;3.47;;
9156;SDS011;4613;48.392;9.998;2022-10-26T05:09:07;4.97;;;3.20;;
9156;SDS011;4613;48.392;9.998;2022-10-26T05:11:57;5.47;;;2.97;;
9156;SDS011;4613;48.392;9.998;2022-10-26T05:14:47;4.10;;;3.20;;
9156;SDS011;4613;48.392;9.998;2022-10-26T05:17:36;3.23;;;2.93;;
9156;SDS011;4613;48.392;9.998;2022-10-26T05:20:26;5.30;;;2.90;;
9156;SDS011;4613;48.392;9.998;2022-10-26T05:23:18;4.17;;;3.20;;
9156;SDS011;4613;48.392;9.998;2022-10-26T05:26:08;4.10;;;3.03;;
9156;SDS011;4613;48.392;9.998;2022-10-26T05:28:57;4.20;;;2.77;;
9156;SDS011;4613;48.392;9.998;2022-10-26T05:31:47;2.77;;;2.40;;
9156;SDS011;4613;48.392;9.998;2022-10-26T05:34:36;3.87;;;2.87;;
9156;SDS011;4613;48.392;9.998;2022-10-26T05:37:28;2.97;;;2.70;;
9156;SDS011;4613;48.392;9.998;2022-10-26T05:40:18;4.57;;;3.20;;
9156;SDS011;4613;48.392;9.998;2022-10-26T05:43:07;4.27;;;3.20;;
9156;SDS011;4613;48.392;9.998;2022-10-26T05:45:57;4.20;;;2.80;;
9156;SDS011;4613;48.392;9.998;2022-10-26T05:48:47;4.33;;;2.63;;
9156;SDS011;4613;48.392;9.998;2022-10-26T05:51:36;3.80;;;2.60;;
9156;SDS011;4613;48.392;9.998;2022-10-26T05:54:27;3.40;;;2.77;;
9156;SDS011;4613;48.392;9.998;2022-10-26T05:57:17;2.80;;;2.57;;
9156;SDS011;4613;48.392;9.998;2022-10-26T06:00:08;3.40;;;2.63;;
9156;SDS011;4613;48.392;9.998;2022-10-26T06:06:22;4.60;;;3.07;;
9156;SDS011;4613;48.392;9.998;2022-10-26T06:09:12;4.17;;;2.63;;
9156;SDS011;4613;48.392;9.998;2022-10-26T06:12:03;3.13;;;2.30;;
9156;SDS011;4613;48.392;9.998;2022-10-26T06:14:53;2.83;;;2.53;;
9156;SDS011;4613;48.392;9.998;2022-10-26T06:17:50;2.60;;;2.27;;
9156;SDS011;4613;48.392;9.998;2022-10-26T06:26:58;2.17;;;1.97;;
9156;SDS011;4613;48.392;9.998;2022-10-26T06:29:58;2.43;;;2.23;;
9156;SDS011;4613;48.392;9.998;2022-10-26T06:32:54;2.47;;;2.27;;
9156;SDS011;4613;48.392;9.998;2022-10-26T06:38:42;2.40;;;2.20;;
9156;SDS011;4613;48.392;9.998;2022-10-26T06:41:33;2.30;;;2.13;;
9156;SDS011;4613;48.392;9.998;2022-10-26T06:44:24;2.40;;;1.83;;
9156;SDS011;4613;48.392;9.998;2022-10-26T06:47:17;2.10;;;1.90;;
9156;SDS011;4613;48.392;9.998;2022-10-26T06:56:13;3.30;;;2.00;;
9156;SDS011;4613;48.392;9.998;2022-10-26T06:59:05;2.07;;;1.87;;
9156;SDS011;4613;48.392;9.998;2022-10-26T07:02:02;1.90;;;1.80;;
9156;SDS011;4613;48.392;9.998;2022-10-26T07:04:51;2.00;;;1.90;;
9156;SDS011;4613;48.392;9.998;2022-10-26T07:07:42;2.00;;;1.80;;
9156;SDS011;4613;48.392;9.998;2022-10-26T07:10:32;3.83;;;2.40;;
9156;SDS011;4613;48.392;9.998;2022-10-26T07:13:26;2.30;;;2.10;;
9156;SDS011;4613;48.392;9.998;2022-10-26T07:16:16;1.97;;;1.60;;
9156;SDS011;4613;48.392;9.998;2022-10-26T07:19:07;2.00;;;1.80;;
9156;SDS011;4613;48.392;9.998;2022-10-26T07:21:57;2.80;;;1.80;;
9156;SDS011;4613;48.392;9.998;2022-10-26T07:24:48;1.90;;;1.70;;
9156;SDS011;4613;48.392;9.998;2022-10-26T07:27:39;1.93;;;1.80;;
9156;SDS011;4613;48.392;9.998;2022-10-26T07:30:29;2.00;;;1.73;;
9156;SDS011;4613;48.392;9.998;2022-10-26T07:33:19;1.80;;;1.57;;
9156;SDS011;4613;48.392;9.998;2022-10-26T07:36:09;1.43;;;1.33;;
9156;SDS011;4613;48.392;9.998;2022-10-26T07:38:59;1.77;;;1.67;;
9156;SDS011;4613;48.392;9.998;2022-10-26T07:41:48;1.53;;;1.43;;
9156;SDS011;4613;48.392;9.998;2022-10-26T07:44:38;2.17;;;1.57;;
9156;SDS011;4613;48.392;9.998;2022-10-26T07:47:27;1.87;;;1.77;;
9156;SDS011;4613;48.392;9.998;2022-10-26T07:50:17;1.63;;;1.43;;
9156;SDS011;4613;48.392;9.998;2022-10-26T07:53:07;2.13;;;2.03;;
9156;SDS011;4613;48.392;9.998;2022-10-26T07:55:56;2.37;;;2.10;;
9156;SDS011;4613;48.392;9.998;2022-10-26T07:58:46;1.87;;;1.77;;
9156;SDS011;4613;48.392;9.998;2022-10-26T08:01:36;2.93;;;2.13;;
9156;SDS011;4613;48.392;9.998;2022-10-26T08:04:25;2.77;;;2.20;;
9156;SDS011;4613;48.392;9.998;2022-10-26T08:07:14;1.80;;;1.70;;
9156;SDS011;4613;48.392;9.998;2022-10-26T08:10:05;2.13;;;1.93;;
9156;SDS011;4613;48.392;9.998;2022-10-26T08:12:55;1.80;;;1.70;;
9156;SDS011;4613;48.392;9.998;2022-10-26T08:15:44;1.97;;;1.87;;
9156;SDS011;4613;48.392;9.998;2022-10-26T08:18:35;1.90;;;1.80;;
9156;SDS011;4613;48.392;9.998;2022-10-26T08:21:25;3.13;;;1.70;;
9156;SDS011;4613;48.392;9.998;2022-10-26T08:24:14;1.50;;;1.40;;
9156;SDS011;4613;48.392;9.998;2022-10-26T08:27:03;1.50;;;1.40;;
9156;SDS011;4613;48.392;9.998;2022-10-26T08:29:54;2.33;;;1.50;;
9156;SDS011;4613;48.392;9.998;2022-10-26T08:32:44;1.57;;;1.47;;
9156;SDS011;4613;48.392;9.998;2022-10-26T08:35:33;1.50;;;1.40;;
9156;SDS011;4613;48.392;9.998;2022-10-26T08:38:23;2.23;;;1.50;;
9156;SDS011;4613;48.392;9.998;2022-10-26T08:41:12;1.60;;;1.50;;
9156;SDS011;4613;48.392;9.998;2022-10-26T08:44:04;1.73;;;1.63;;
9156;SDS011;4613;48.392;9.998;2022-10-26T08:47:18;1.40;;;1.30;;
9156;SDS011;4613;48.392;9.998;2022-10-26T08:50:27;1.73;;;1.50;;
9156;SDS011;4613;48.392;9.998;2022-10-26T08:53:37;1.70;;;1.60;;
9156;SDS011;4613;48.392;9.998;2022-10-26T08:56:38;2.17;;;1.77;;
9156;SDS011;4613;48.392;9.998;2022-10-26T08:59:33;1.67;;;1.57;;
9156;SDS011;4613;48.392;9.998;2022-10-26T09:02:39;2.07;;;1.87;;
9156;SDS011;4613;48.392;9.998;2022-10-26T09:05:31;1.67;;;1.57;;
9156;SDS011;4613;48.392;9.998;2022-10-26T09:08:33;1.60;;;1.50;;
9156;SDS011;4613;48.392;9.998;2022-10-26T09:12:04;2.60;;;1.97;;
9156;SDS011;4613;48.392;9.998;2022-10-26T09:18:03;1.80;;;1.60;;
9156;SDS011;4613;48.392;9.998;2022-10-26T09:21:08;1.90;;;1.50;;
9156;SDS011;4613;48.392;9.998;2022-10-26T09:24:15;1.83;;;1.73;;
9156;SDS011;4613;48.392;9.998;2022-10-26T09:27:38;2.63;;;1.70;;
9156;SDS011;4613;48.392;9.998;2022-10-26T09:30:33;3.27;;;1.53;;
9156;SDS011;4613;48.392;9.998;2022-10-26T09:33:24;1.97;;;1.80;;
9156;SDS011;4613;48.392;9.998;2022-10-26T09:36:18;1.83;;;1.73;;
9156;SDS011;4613;48.392;9.998;2022-10-26T09:42:27;2.33;;;1.73;;
9156;SDS011;4613;48.392;9.998;2022-10-26T09:45:39;1.70;;;1.60;;
9156;SDS011;4613;48.392;9.998;2022-10-26T09:48:34;1.90;;;1.70;;
9156;SDS011;4613;48.392;9.998;2022-10-26T09:51:32;1.83;;;1.53;;
9156;SDS011;4613;48.392;9.998;2022-10-26T09:54:24;2.90;;;1.70;;
9156;SDS011;4613;48.392;9.998;2022-10-26T09:57:15;1.80;;;1.70;;
9156;SDS011;4613;48.392;9.998;2022-10-26T10:00:14;1.73;;;1.60;;
9156;SDS011;4613;48.392;9.998;2022-10-26T10:03:15;1.57;;;1.47;;
9156;SDS011;4613;48.392;9.998;2022-10-26T10:06:23;1.70;;;1.60;;
9156;SDS011;4613;48.392;9.998;2022-10-26T10:12:19;2.23;;;1.73;;
9156;SDS011;4613;48.392;9.998;2022-10-26T10:15:16;1.67;;;1.57;;
9156;SDS011;4613;48.392;9.998;2022-10-26T10:18:17;1.80;;;1.70;;
9156;SDS011;4613;48.392;9.998;2022-10-26T10:21:08;1.90;;;1.67;;
9156;SDS011;4613;48.392;9.998;2022-10-26T10:23:59;2.37;;;1.40;;
9156;SDS011;4613;48.392;9.998;2022-10-26T10:26:54;1.60;;;1.50;;
9156;SDS011;4613;48.392;9.998;2022-10-26T10:30:28;1.53;;;1.43;;
9156;SDS011;4613;48.392;9.998;2022-10-26T10:33:18;2.30;;;1.53;;
9156;SDS011;4613;48.392;9.998;2022-10-26T10:36:09;1.60;;;1.47;;
9156;SDS011;4613;48.392;9.998;2022-10-26T10:39:02;2.50;;;1.50;;
9156;SDS011;4613;48.392;9.998;2022-10-26T10:42:20;1.30;;;1.20;;
9156;SDS011;4613;48.392;9.998;2022-10-26T10:51:02;1.63;;;1.47;;
9156;SDS011;4613;48.392;9.998;2022-10-26T10:54:01;1.70;;;1.30;;
9156;SDS011;4613;48.392;9.998;2022-10-26T10:56:53;1.63;;;1.50;;
9156;SDS011;4613;48.392;9.998;2022-10-26T11:00:04;1.93;;;1.40;;
9156;SDS011;4613;48.392;9.998;2022-10-26T11:03:03;2.60;;;1.40;;
9156;SDS011;4613;48.392;9.998;2022-10-26T11:11:59;1.90;;;1.40;;
9156;SDS011;4613;48.392;9.998;2022-10-26T11:14:55;1.93;;;1.53;;
9156;SDS011;4613;48.392;9.998;2022-10-26T11:18:13;1.63;;;1.53;;
9156;SDS011;4613;48.392;9.998;2022-10-26T11:21:24;1.77;;;1.60;;
9156;SDS011;4613;48.392;9.998;2022-10-26T11:27:17;1.70;;;1.60;;
9156;SDS011;4613;48.392;9.998;2022-10-26T11:30:12;2.03;;;1.80;;
9156;SDS011;4613;48.392;9.998;2022-10-26T11:36:04;2.30;;;1.97;;
9156;SDS011;4613;48.392;9.998;2022-10-26T11:42:12;1.53;;;1.43;;
9156;SDS011;4613;48.392;9.998;2022-10-26T11:45:14;1.60;;;1.20;;
9156;SDS011;4613;48.392;9.998;2022-10-26T11:54:31;1.97;;;1.53;;
9156;SDS011;4613;48.392;9.998;2022-10-26T11:57:25;1.03;;;1.03;;
9156;SDS011;4613;48.392;9.998;2022-10-26T12:00:18;1.30;;;1.20;;
9156;SDS011;4613;48.392;9.998;2022-10-26T12:03:10;1.67;;;1.30;;
9156;SDS011;4613;48.392;9.998;2022-10-26T12:06:04;1.40;;;1.30;;
9156;SDS011;4613;48.392;9.998;2022-10-26T12:08:58;1.20;;;1.20;;
9156;SDS011;4613;48.392;9.998;2022-10-26T12:15:41;1.03;;;1.03;;
9156;SDS011;4613;48.392;9.998;2022-10-26T12:18:43;1.40;;;1.23;;
9156;SDS011;4613;48.392;9.998;2022-10-26T12:21:36;1.20;;;1.10;;
9156;SDS011;4613;48.392;9.998;2022-10-26T12:24:27;1.87;;;1.20;;
9156;SDS011;4613;48.392;9.998;2022-10-26T12:27:28;1.93;;;1.60;;
9156;SDS011;4613;48.392;9.998;2022-10-26T12:30:36;1.20;;;1.10;;
9156;SDS011;4613;48.392;9.998;2022-10-26T12:33:29;1.37;;;1.10;;
9156;SDS011;4613;48.392;9.998;2022-10-26T12:39:40;1.40;;;1.30;;
9156;SDS011;4613;48.392;9.998;2022-10-26T12:42:30;1.83;;;1.27;;
9156;SDS011;4613;48.392;9.998;2022-10-26T12:45:28;1.10;;;1.10;;
9156;SDS011;4613;48.392;9.998;2022-10-26T12:48:32;1.23;;;1.13;;
9156;SDS011;4613;48.392;9.998;2022-10-26T12:54:29;1.37;;;1.20;;
9156;SDS011;4613;48.392;9.998;2022-10-26T12:57:30;1.40;;;1.30;;
9156;SDS011;4613;48.392;9.998;2022-10-26T13:00:36;1.53;;;1.30;;
9156;SDS011;4613;48.392;9.998;2022-10-26T13:03:33;1.10;;;1.00;;
9156;SDS011;4613;48.392;9.998;2022-10-26T13:13:02;2.47;;;1.30;;
9156;SDS011;4613;48.392;9.998;2022-10-26T13:15:54;1.27;;;1.13;;
9156;SDS011;4613;48.392;9.998;2022-10-26T13:18:49;0.83;;;0.83;;
9156;SDS011;4613;48.392;9.998;2022-10-26T13:21:45;1.10;;;1.00;;
9156;SDS011;4613;48.392;9.998;2022-10-26T13:24:36;1.30;;;1.20;;
9156;SDS011;4613;48.392;9.998;2022-10-26T13:30:33;2.77;;;1.27;;
9156;SDS011;4613;48.392;9.998;2022-10-26T13:33:35;1.00;;;0.90;;
9156;SDS011;4613;48.392;9.998;2022-10-26T13:37:13;1.23;;;1.10;;
9156;SDS011;4613;48.392;9.998;2022-10-26T13:39:42;1.17;;;1.07;;
9156;SDS011;4613;48.392;9.998;2022-10-26T13:42:53;1.33;;;1.00;;
9156;SDS011;4613;48.392;9.998;2022-10-26T13:45:48;1.17;;;1.00;;
9156;SDS011;4613;48.392;9.998;2022-10-26T13:48:43;2.37;;;1.13;;
9156;SDS011;4613;48.392;9.998;2022-10-26T13:51:53;1.00;;;1.00;;
9156;SDS011;4613;48.392;9.998;2022-10-26T13:54:44;1.93;;;1.50;;
9156;SDS011;4613;48.392;9.998;2022-10-26T14:01:19;2.57;;;1.47;;
9156;SDS011;4613;48.392;9.998;2022-10-26T14:04:15;0.97;;;0.90;;
9156;SDS011;4613;48.392;9.998;2022-10-26T14:07:10;1.97;;;1.20;;
9156;SDS011;4613;48.392;9.998;2022-10-26T14:10:22;1.00;;;1.00;;
9156;SDS011;4613;48.392;9.998;2022-10-26T14:13:14;3.07;;;1.47;;
9156;SDS011;4613;48.392;9.998;2022-10-26T14:16:08;1.43;;;1.20;;
9156;SDS011;4613;48.392;9.998;2022-10-26T14:18:58;1.33;;;1.23;;
9156;SDS011;4613;48.392;9.998;2022-10-26T14:21:48;1.37;;;1.17;;
9156;SDS011;4613;48.392;9.998;2022-10-26T14:24:38;2.50;;;1.60;;
9156;SDS011;4613;48.392;9.998;2022-10-26T14:27:32;3.13;;;1.30;;
9156;SDS011;4613;48.392;9.998;2022-10-26T14:30:27;1.47;;;1.20;;
9156;SDS011;4613;48.392;9.998;2022-10-26T14:33:19;1.07;;;1.07;;
9156;SDS011;4613;48.392;9.998;2022-10-26T14:36:13;1.37;;;1.27;;
9156;SDS011;4613;48.392;9.998;2022-10-26T14:39:05;1.57;;;1.27;;
9156;SDS011;4613;48.392;9.998;2022-10-26T14:41:57;2.47;;;1.40;;
9156;SDS011;4613;48.392;9.998;2022-10-26T14:44:49;1.57;;;1.20;;
9156;SDS011;4613;48.392;9.998;2022-10-26T14:47:38;2.40;;;1.30;;
9156;SDS011;4613;48.392;9.998;2022-10-26T14:50:36;1.40;;;1.30;;
9156;SDS011;4613;48.392;9.998;2022-10-26T14:53:33;1.37;;;1.27;;
9156;SDS011;4613;48.392;9.998;2022-10-26T14:56:30;1.20;;;1.10;;
9156;SDS011;4613;48.392;9.998;2022-10-26T14:59:31;1.50;;;1.40;;
9156;SDS011;4613;48.392;9.998;2022-10-26T15:02:20;1.40;;;1.30;;
9156;SDS011;4613;48.392;9.998;2022-10-26T15:05:16;1.00;;;1.00;;
9156;SDS011;4613;48.392;9.998;2022-10-26T15:08:45;1.10;;;1.10;;
9156;SDS011;4613;48.392;9.998;2022-10-26T15:11:28;1.30;;;1.20;;
9156;SDS011;4613;48.392;9.998;2022-10-26T15:14:20;1.60;;;1.40;;
9156;SDS011;4613;48.392;9.998;2022-10-26T15:17:18;1.77;;;1.23;;
9156;SDS011;4613;48.392;9.998;2022-10-26T15:20:19;1.13;;;1.10;;
9156;SDS011;4613;48.392;9.998;2022-10-26T15:23:11;1.93;;;1.40;;
9156;SDS011;4613;48.392;9.998;2022-10-26T15:26:02;1.40;;;1.30;;
9156;SDS011;4613;48.392;9.998;2022-10-26T15:28:52;2.27;;;1.27;;
9156;SDS011;4613;48.392;9.998;2022-10-26T15:31:42;1.67;;;1.50;;
9156;SDS011;4613;48.392;9.998;2022-10-26T15:34:31;2.93;;;1.53;;
9156;SDS011;4613;48.392;9.998;2022-10-26T15:37:21;1.13;;;1.10;;
9156;SDS011;4613;48.392;9.998;2022-10-26T15:40:11;2.07;;;1.37;;
9156;SDS011;4613;48.392;9.998;2022-10-26T15:43:01;1.37;;;1.23;;
9156;SDS011;4613;48.392;9.998;2022-10-26T15:45:51;1.30;;;1.20;;
9156;SDS011;4613;48.392;9.998;2022-10-26T15:48:44;1.37;;;1.27;;
9156;SDS011;4613;48.392;9.998;2022-10-26T15:51:42;1.30;;;1.20;;
9156;SDS011;4613;48.392;9.998;2022-10-26T15:54:33;2.03;;;1.60;;
9156;SDS011;4613;48.392;9.998;2022-10-26T15:57:23;2.03;;;1.77;;
9156;SDS011;4613;48.392;9.998;2022-10-26T16:00:15;1.30;;;1.20;;
9156;SDS011;4613;48.392;9.998;2022-10-26T16:03:05;1.50;;;1.40;;
9156;SDS011;4613;48.392;9.998;2022-10-26T16:05:58;1.47;;;1.30;;
9156;SDS011;4613;48.392;9.998;2022-10-26T16:08:49;1.43;;;1.33;;
9156;SDS011;4613;48.392;9.998;2022-10-26T16:11:41;1.53;;;1.43;;
9156;SDS011;4613;48.392;9.998;2022-10-26T16:14:31;1.60;;;1.50;;
9156;SDS011;4613;48.392;9.998;2022-10-26T16:17:21;2.33;;;1.60;;
9156;SDS011;4613;48.392;9.998;2022-10-26T16:20:18;1.23;;;1.20;;
9156;SDS011;4613;48.392;9.998;2022-10-26T16:23:12;1.60;;;1.50;;
9156;SDS011;4613;48.392;9.998;2022-10-26T16:26:02;1.53;;;1.43;;
9156;SDS011;4613;48.392;9.998;2022-10-26T16:28:52;1.57;;;1.47;;
9156;SDS011;4613;48.392;9.998;2022-10-26T16:31:41;2.07;;;1.87;;
9156;SDS011;4613;48.392;9.998;2022-10-26T16:34:31;2.60;;;2.10;;
9156;SDS011;4613;48.392;9.998;2022-10-26T16:37:21;3.77;;;1.90;;
9156;SDS011;4613;48.392;9.998;2022-10-26T16:40:10;2.00;;;1.80;;
9156;SDS011;4613;48.392;9.998;2022-10-26T16:43:00;1.50;;;1.40;;
9156;SDS011;4613;48.392;9.998;2022-10-26T16:45:49;2.47;;;2.00;;
9156;SDS011;4613;48.392;9.998;2022-10-26T16:48:40;2.90;;;1.90;;
9156;SDS011;4613;48.392;9.998;2022-10-26T16:51:30;4.07;;;2.10;;
9156;SDS011;4613;48.392;9.998;2022-10-26T16:54:20;3.00;;;1.70;;
9156;SDS011;4613;48.392;9.998;2022-10-26T16:57:10;2.20;;;1.67;;
9156;SDS011;4613;48.392;9.998;2022-10-26T17:00:00;3.77;;;2.03;;
9156;SDS011;4613;48.392;9.998;2022-10-26T17:02:51;1.77;;;1.60;;
9156;SDS011;4613;48.392;9.998;2022-10-26T17:05:40;2.07;;;1.80;;
9156;SDS011;4613;48.392;9.998;2022-10-26T17:08:30;2.50;;;2.30;;
9156;SDS011;4613;48.392;9.998;2022-10-26T17:11:21;3.70;;;2.10;;
9156;SDS011;4613;48.392;9.998;2022-10-26T17:14:11;4.03;;;2.20;;
9156;SDS011;4613;48.392;9.998;2022-10-26T17:17:00;2.40;;;2.20;;
9156;SDS011;4613;48.392;9.998;2022-10-26T17:19:49;3.73;;;2.37;;
9156;SDS011;4613;48.392;9.998;2022-10-26T17:22:39;3.30;;;2.20;;
9156;SDS011;4613;48.392;9.998;2022-10-26T17:25:32;2.57;;;2.37;;
9156;SDS011;4613;48.392;9.998;2022-10-26T17:28:21;2.67;;;2.23;;
9156;SDS011;4613;48.392;9.998;2022-10-26T17:31:11;3.07;;;2.47;;
9156;SDS011;4613;48.392;9.998;2022-10-26T17:34:02;2.10;;;1.90;;
9156;SDS011;4613;48.392;9.998;2022-10-26T17:36:52;2.87;;;2.30;;
9156;SDS011;4613;48.392;9.998;2022-10-26T17:39:41;3.93;;;2.97;;
9156;SDS011;4613;48.392;9.998;2022-10-26T17:42:31;3.17;;;2.20;;
9156;SDS011;4613;48.392;9.998;2022-10-26T17:45:20;5.23;;;2.77;;
9156;SDS011;4613;48.392;9.998;2022-10-26T17:48:10;4.33;;;2.77;;
9156;SDS011;4613;48.392;9.998;2022-10-26T17:51:03;3.53;;;2.60;;
9156;SDS011;4613;48.392;9.998;2022-10-26T17:53:54;3.47;;;2.60;;
9156;SDS011;4613;48.392;9.998;2022-10-26T17:56:45;3.03;;;2.27;;
9156;SDS011;4613;48.392;9.998;2022-10-26T17:59:34;2.37;;;2.03;;
9156;SDS011;4613;48.392;9.998;2022-10-26T18:02:24;2.60;;;2.30;;
9156;SDS011;4613;48.392;9.998;2022-10-26T18:05:14;2.60;;;2.40;;
9156;SDS011;4613;48.392;9.998;2022-10-26T18:08:03;2.97;;;2.20;;
9156;SDS011;4613;48.392;9.998;2022-10-26T18:10:53;2.77;;;2.57;;
9156;SDS011;4613;48.392;9.998;2022-10-26T18:13:46;2.87;;;2.27;;
9156;SDS011;4613;48.392;9.998;2022-10-26T18:16:36;3.67;;;2.40;;
9156;SDS011;4613;48.392;9.998;2022-10-26T18:19:26;3.03;;;2.40;;
9156;SDS011;4613;48.392;9.998;2022-10-26T18:22:15;4.37;;;2.67;;
9156;SDS011;4613;48.392;9.998;2022-10-26T18:25:05;3.43;;;2.90;;
9156;SDS011;4613;48.392;9.998;2022-10-26T18:27:55;3.10;;;2.80;;
9156;SDS011;4613;48.392;9.998;2022-10-26T18:30:45;4.80;;;3.23;;
9156;SDS011;4613;48.392;9.998;2022-10-26T18:33:34;3.13;;;2.83;;
9156;SDS011;4613;48.392;9.998;2022-10-26T18:36:24;3.40;;;3.03;;
9156;SDS011;4613;48.392;9.998;2022-10-26T18:39:15;4.07;;;2.87;;
9156;SDS011;4613;48.392;9.998;2022-10-26T18:42:06;3.23;;;2.90;;
9156;SDS011;4613;48.392;9.998;2022-10-26T18:44:55;4.47;;;3.10;;
9156;SDS011;4613;48.392;9.998;2022-10-26T18:47:49;4.37;;;2.93;;
9156;SDS011;4613;48.392;9.998;2022-10-26T18:50:41;4.27;;;3.10;;
9156;SDS011;4613;48.392;9.998;2022-10-26T18:53:32;5.33;;;3.10;;
9156;SDS011;4613;48.392;9.998;2022-10-26T18:56:22;5.83;;;3.27;;
9156;SDS011;4613;48.392;9.998;2022-10-26T18:59:12;3.90;;;3.50;;
9156;SDS011;4613;48.392;9.998;2022-10-26T19:02:02;4.47;;;3.10;;
9156;SDS011;4613;48.392;9.998;2022-10-26T19:04:51;3.90;;;2.90;;
9156;SDS011;4613;48.392;9.998;2022-10-26T19:07:41;3.90;;;3.33;;
9156;SDS011;4613;48.392;9.998;2022-10-26T19:10:31;4.50;;;3.13;;
9156;SDS011;4613;48.392;9.998;2022-10-26T19:13:21;3.70;;;3.27;;
9156;SDS011;4613;48.392;9.998;2022-10-26T19:16:15;3.47;;;3.17;;
9156;SDS011;4613;48.392;9.998;2022-10-26T19:19:05;3.77;;;2.93;;
9156;SDS011;4613;48.392;9.998;2022-10-26T19:21:56;5.43;;;3.27;;
9156;SDS011;4613;48.392;9.998;2022-10-26T19:24:48;5.00;;;3.80;;
9156;SDS011;4613;48.392;9.998;2022-10-26T19:27:37;5.13;;;3.50;;
9156;SDS011;4613;48.392;9.998;2022-10-26T19:30:27;3.53;;;3.20;;
9156;SDS011;4613;48.392;9.998;2022-10-26T19:33:17;4.67;;;3.40;;
9156;SDS011;4613;48.392;9.998;2022-10-26T19:36:07;3.80;;;3.23;;
9156;SDS011;4613;48.392;9.998;2022-10-26T19:38:59;4.27;;;3.03;;